Thomson Spirit — 9HA2336 — position and weather

sailwx.info

Track history (hours):
 
Tides and Currents Weather Stations Pressure Air Temp Water Temp Dewpoint Dewpoint Depression Visibility Wind Speed Wind Dir Waves Ship Positions

Thomson Spirit

Last reported at 2014-Aug-28 10:14 UTC. Time now 2014-Aug-29 16:22 UTC.
Position N 58°31' W 006°05'.

Length 214 m; draft 7.8 m.

Type: Passenger vessel. MMSI: 248368000.

Date/timePositionNaut miles runAvg speedWind from/ knotsBaromVisibWave heightAir tempDewpointWater temp
2014-Aug-28 10:14N 58°31' W 006°05'1015.1
2014-Aug-28 09:33N 58°21' W 005°60'1513.2
2014-Aug-28 08:25N 58°10' W 006°18'2 2.1
2014-Aug-28 07:32N 58°10' W 006°21'1 0.6
2014-Aug-28 06:33N 58°11' W 006°21'0 0.0
2014-Aug-28 05:34N 58°11' W 006°21'2 1.9
2014-Aug-28 04:30N 58°10' W 006°18'9 9.6
2014-Aug-28 03:33N 58°13' W 006°01'1616.1
2014-Aug-28 02:33N 58°25' W 005°39'4916.3
2014-Aug-27 23:33N 58°42' W 004°12'1716.7
2014-Aug-27 22:33N 58°42' W 003°40'1514.8
2014-Aug-27 21:33N 58°43' W 003°11'1110.6
2014-Aug-27 20:33N 58°36' W 002°55'15915.6
2014-Aug-27 10:22N 56°10' W 001°01'8517.6
2014-Aug-27 05:31N 54°51' W 000°04'1616.6
2014-Aug-27 04:34N 54°37' E 000°08'1616.5
2014-Aug-27 03:34N 54°24' E 000°27'12916.1
2014-Aug-26 19:32N 52°35' E 002°21'1515.0
2014-Aug-26 18:34N 52°23' E 002°07'1616.0
2014-Aug-26 17:34N 52°10' E 001°51'1615.9
2014-Aug-26 16:34N 51°58' E 001°34'1010.4
2014-Aug-26 15:33N 51°57' E 001°18'1 1.3
2014-Aug-26 14:33N 51°57' E 001°15'0 0.0
2014-Aug-26 13:32N 51°57' E 001°15'0 0.0
2014-Aug-26 12:33N 51°57' E 001°15'0 0.0
2014-Aug-26 11:32N 51°57' E 001°15'0 0.0
2014-Aug-26 10:33N 51°57' E 001°15'0 0.0
2014-Aug-26 09:33N 51°57' E 001°15'0 0.0
2014-Aug-26 08:32N 51°57' E 001°15'0 0.0
2014-Aug-26 07:32N 51°57' E 001°15'0 0.0
2014-Aug-26 06:33N 51°57' E 001°15'0 0.0
2014-Aug-26 05:33N 51°57' E 001°15'1 1.5
2014-Aug-26 04:33N 51°57' E 001°18'9 9.3
2014-Aug-26 03:33N 51°57' E 001°33'7 6.6
2014-Aug-26 02:33N 52°02' E 001°39'9 9.2
2014-Aug-26 01:33N 52°05' E 001°53'10 9.7
2014-Aug-26 00:33N 52°09' E 002°08'6915.5
2014-Aug-25 20:08N 52°31' E 003°54'915.5
2014-Aug-25 19:33N 52°31' E 004°08'1414.3
2014-Aug-25 18:34N 52°28' E 004°31'5 4.5
2014-Aug-25 17:33N 52°28' E 004°39'8 7.9
2014-Aug-25 16:34N 52°25' E 004°51'3 3.4
2014-Aug-25 15:32N 52°23' E 004°55'0 0.0
2014-Aug-25 14:29N 52°23' E 004°55'0 0.0
2014-Aug-25 13:32N 52°23' E 004°55'0 0.0
2014-Aug-25 12:31N 52°23' E 004°55'0 0.0
2014-Aug-25 11:31N 52°23' E 004°55'0 0.0
2014-Aug-25 10:32N 52°23' E 004°55'0 0.0
2014-Aug-25 09:31N 52°23' E 004°55'0 0.0
2014-Aug-25 08:32N 52°23' E 004°55'0 0.0
2014-Aug-25 07:32N 52°23' E 004°55'0 0.0
2014-Aug-25 06:32N 52°23' E 004°55'0 0.0
2014-Aug-25 05:32N 52°23' E 004°55'0 0.0
2014-Aug-25 04:32N 52°23' E 004°55'0 0.0
2014-Aug-25 03:32N 52°23' E 004°55'0 0.0
2014-Aug-25 02:32N 52°23' E 004°55'0 0.0
2014-Aug-25 01:32N 52°23' E 004°55'0 0.0
2014-Aug-25 00:32N 52°23' E 004°55'0 0.0
2014-Aug-24 23:32N 52°23' E 004°55'0 0.0
2014-Aug-24 22:31N 52°23' E 004°55'0 0.0
2014-Aug-24 21:31N 52°23' E 004°55'0 0.0
2014-Aug-24 20:31N 52°23' E 004°55'0 0.0
2014-Aug-24 19:32N 52°23' E 004°55'0 0.0
2014-Aug-24 18:31N 52°23' E 004°55'0 0.0
2014-Aug-24 17:32N 52°23' E 004°55'0 0.0
2014-Aug-24 16:31N 52°23' E 004°55'0 0.0
2014-Aug-24 15:31N 52°23' E 004°55'0 0.0
2014-Aug-24 14:31N 52°23' E 004°55'0 0.0
2014-Aug-24 13:32N 52°23' E 004°55'0 0.0
2014-Aug-24 12:32N 52°23' E 004°55'1 1.1
2014-Aug-24 11:34N 52°23' E 004°54'8 7.8
2014-Aug-24 10:33N 52°27' E 004°42'4 4.3
2014-Aug-24 09:33N 52°28' E 004°35'6 6.5
2014-Aug-24 08:33N 52°29' E 004°25'1514.5
2014-Aug-24 07:34N 52°28' E 004°01'14914.9
2014-Aug-23 21:32N 54°03' E 000°49'1515.7
2014-Aug-23 20:33N 54°12' E 000°27'1515.2
2014-Aug-23 19:33N 54°22' E 000°07'65 4.1
2014-Aug-23 03:33N 55°02' W 001°21'14017.6
2014-Aug-22 19:33N 57°22' W 001°43'1716.8
2014-Aug-22 18:33N 57°39' W 001°46'1716.7
2014-Aug-22 17:32N 57°55' W 001°57'6716.7
2014-Aug-22 13:33N 58°57' W 002°38'1010.3
2014-Aug-22 12:33N 59°00' W 002°58'0 0.1
2014-Aug-22 11:32N 59°00' W 002°58'0 0.0
2014-Aug-22 10:33N 59°00' W 002°58'0 0.0
2014-Aug-22 09:33N 59°00' W 002°58'0 0.0
2014-Aug-22 08:32N 59°00' W 002°58'0 0.0
2014-Aug-22 07:32N 59°00' W 002°58'2 2.5
2014-Aug-22 06:33N 59°01' W 002°53'1111.1
2014-Aug-22 05:34N 58°51' W 002°41'1716.6
2014-Aug-22 04:33N 58°43' W 003°09'1717.5
2014-Aug-22 03:34N 58°44' W 003°42'1716.9
2014-Aug-22 02:33N 58°50' W 004°13'1111.4
2014-Aug-22 01:33N 58°41' W 004°27'4514.4
2014-Aug-21 22:24N 58°14' W 005°37'1416.3
2014-Aug-21 21:33N 58°03' W 005°52'129 7.4
2014-Aug-21 04:09N 55°59' W 006°53'914.6
2014-Aug-21 03:33N 55°50' W 006°49'1615.7
2014-Aug-21 02:33N 55°37' W 006°35'1716.6
2014-Aug-21 01:33N 55°26' W 006°12'1717.4
2014-Aug-21 00:33N 55°15' W 005°50'2218.3
2014-Aug-20 23:23N 54°57' W 005°28'1518.3
2014-Aug-20 22:33N 54°43' W 005°20'1818.0
2014-Aug-20 21:33N 54°25' W 005°15'123 5.8
2014-Aug-20 00:10N 52°23' W 005°50'813.8
2014-Aug-19 23:33N 52°16' W 005°56'1312.7
2014-Aug-19 22:33N 52°04' W 006°06'1312.8
2014-Aug-19 21:33N 52°01' W 006°26'1313.4
2014-Aug-19 20:33N 52°01' W 006°48'1110.5
2014-Aug-19 19:33N 52°09' W 006°59'0 0.0
2014-Aug-19 18:33N 52°09' W 006°59'0 0.0
2014-Aug-19 17:33N 52°09' W 006°59'0 0.0
2014-Aug-19 16:33N 52°09' W 006°59'0 0.0
2014-Aug-19 15:28N 52°09' W 006°59'0 0.0
2014-Aug-19 14:31N 52°09' W 006°59'0 0.0
2014-Aug-19 13:33N 52°09' W 006°59'0 0.0
2014-Aug-19 12:33N 52°09' W 006°59'0 0.0
2014-Aug-19 11:33N 52°09' W 006°59'0 0.0
2014-Aug-19 10:33N 52°09' W 006°59'0 0.1
2014-Aug-19 09:32N 52°09' W 006°59'1212.3
2014-Aug-19 08:33N 51°57' W 006°52'27178.4
2014-Aug-19 05:06N 54°60' W 001°15'  
Track history (hours):
 
Tides and Currents Weather Stations Pressure Air Temp Water Temp Dewpoint Dewpoint Depression Visibility Wind Speed Wind Dir Waves Ship Positions

Thomson Spirit

Last reported at 2014-Aug-28 10:14 UTC. Time now 2014-Aug-29 16:22 UTC.
Position N 58°31' W 006°05'.

Length 214 m; draft 7.8 m.

Type: Passenger vessel. MMSI: 248368000.

Date/timePositionNaut miles runAvg speedWind from/ knotsBaromVisibWave heightAir tempDewpointWater temp
2014-Aug-28 10:14N 58°31' W 006°05'1015.1
2014-Aug-28 09:33N 58°21' W 005°60'1513.2
2014-Aug-28 08:25N 58°10' W 006°18'2 2.1
2014-Aug-28 07:32N 58°10' W 006°21'1 0.6
2014-Aug-28 06:33N 58°11' W 006°21'0 0.0
2014-Aug-28 05:34N 58°11' W 006°21'2 1.9
2014-Aug-28 04:30N 58°10' W 006°18'9 9.6
2014-Aug-28 03:33N 58°13' W 006°01'1616.1
2014-Aug-28 02:33N 58°25' W 005°39'4916.3
2014-Aug-27 23:33N 58°42' W 004°12'1716.7
2014-Aug-27 22:33N 58°42' W 003°40'1514.8
2014-Aug-27 21:33N 58°43' W 003°11'1110.6
2014-Aug-27 20:33N 58°36' W 002°55'15915.6
2014-Aug-27 10:22N 56°10' W 001°01'8517.6
2014-Aug-27 05:31N 54°51' W 000°04'1616.6
2014-Aug-27 04:34N 54°37' E 000°08'1616.5
2014-Aug-27 03:34N 54°24' E 000°27'12916.1
2014-Aug-26 19:32N 52°35' E 002°21'1515.0
2014-Aug-26 18:34N 52°23' E 002°07'1616.0
2014-Aug-26 17:34N 52°10' E 001°51'1615.9
2014-Aug-26 16:34N 51°58' E 001°34'1010.4
2014-Aug-26 15:33N 51°57' E 001°18'1 1.3
2014-Aug-26 14:33N 51°57' E 001°15'0 0.0
2014-Aug-26 13:32N 51°57' E 001°15'0 0.0
2014-Aug-26 12:33N 51°57' E 001°15'0 0.0
2014-Aug-26 11:32N 51°57' E 001°15'0 0.0
2014-Aug-26 10:33N 51°57' E 001°15'0 0.0
2014-Aug-26 09:33N 51°57' E 001°15'0 0.0
2014-Aug-26 08:32N 51°57' E 001°15'0 0.0
2014-Aug-26 07:32N 51°57' E 001°15'0 0.0
2014-Aug-26 06:33N 51°57' E 001°15'0 0.0
2014-Aug-26 05:33N 51°57' E 001°15'1 1.5
2014-Aug-26 04:33N 51°57' E 001°18'9 9.3
2014-Aug-26 03:33N 51°57' E 001°33'7 6.6
2014-Aug-26 02:33N 52°02' E 001°39'9 9.2
2014-Aug-26 01:33N 52°05' E 001°53'10 9.7
2014-Aug-26 00:33N 52°09' E 002°08'6915.5
2014-Aug-25 20:08N 52°31' E 003°54'915.5
2014-Aug-25 19:33N 52°31' E 004°08'1414.3
2014-Aug-25 18:34N 52°28' E 004°31'5 4.5
2014-Aug-25 17:33N 52°28' E 004°39'8 7.9
2014-Aug-25 16:34N 52°25' E 004°51'3 3.4
2014-Aug-25 15:32N 52°23' E 004°55'0 0.0
2014-Aug-25 14:29N 52°23' E 004°55'0 0.0
2014-Aug-25 13:32N 52°23' E 004°55'0 0.0
2014-Aug-25 12:31N 52°23' E 004°55'0 0.0
2014-Aug-25 11:31N 52°23' E 004°55'0 0.0
2014-Aug-25 10:32N 52°23' E 004°55'0 0.0
2014-Aug-25 09:31N 52°23' E 004°55'0 0.0
2014-Aug-25 08:32N 52°23' E 004°55'0 0.0
2014-Aug-25 07:32N 52°23' E 004°55'0 0.0
2014-Aug-25 06:32N 52°23' E 004°55'0 0.0
2014-Aug-25 05:32N 52°23' E 004°55'0 0.0
2014-Aug-25 04:32N 52°23' E 004°55'0 0.0
2014-Aug-25 03:32N 52°23' E 004°55'0 0.0
2014-Aug-25 02:32N 52°23' E 004°55'0 0.0
2014-Aug-25 01:32N 52°23' E 004°55'0 0.0
2014-Aug-25 00:32N 52°23' E 004°55'0 0.0
2014-Aug-24 23:32N 52°23' E 004°55'0 0.0
2014-Aug-24 22:31N 52°23' E 004°55'0 0.0
2014-Aug-24 21:31N 52°23' E 004°55'0 0.0
2014-Aug-24 20:31N 52°23' E 004°55'0 0.0
2014-Aug-24 19:32N 52°23' E 004°55'0 0.0
2014-Aug-24 18:31N 52°23' E 004°55'0 0.0
2014-Aug-24 17:32N 52°23' E 004°55'0 0.0
2014-Aug-24 16:31N 52°23' E 004°55'0 0.0
2014-Aug-24 15:31N 52°23' E 004°55'0 0.0
2014-Aug-24 14:31N 52°23' E 004°55'0 0.0
2014-Aug-24 13:32N 52°23' E 004°55'0 0.0
2014-Aug-24 12:32N 52°23' E 004°55'1 1.1
2014-Aug-24 11:34N 52°23' E 004°54'8 7.8
2014-Aug-24 10:33N 52°27' E 004°42'4 4.3
2014-Aug-24 09:33N 52°28' E 004°35'6 6.5
2014-Aug-24 08:33N 52°29' E 004°25'1514.5
2014-Aug-24 07:34N 52°28' E 004°01'14914.9
2014-Aug-23 21:32N 54°03' E 000°49'1515.7
2014-Aug-23 20:33N 54°12' E 000°27'1515.2
2014-Aug-23 19:33N 54°22' E 000°07'65 4.1
2014-Aug-23 03:33N 55°02' W 001°21'14017.6
2014-Aug-22 19:33N 57°22' W 001°43'1716.8
2014-Aug-22 18:33N 57°39' W 001°46'1716.7
2014-Aug-22 17:32N 57°55' W 001°57'6716.7
2014-Aug-22 13:33N 58°57' W 002°38'1010.3
2014-Aug-22 12:33N 59°00' W 002°58'0 0.1
2014-Aug-22 11:32N 59°00' W 002°58'0 0.0
2014-Aug-22 10:33N 59°00' W 002°58'0 0.0
2014-Aug-22 09:33N 59°00' W 002°58'0 0.0
2014-Aug-22 08:32N 59°00' W 002°58'0 0.0
2014-Aug-22 07:32N 59°00' W 002°58'2 2.5
2014-Aug-22 06:33N 59°01' W 002°53'1111.1
2014-Aug-22 05:34N 58°51' W 002°41'1716.6
2014-Aug-22 04:33N 58°43' W 003°09'1717.5
2014-Aug-22 03:34N 58°44' W 003°42'1716.9
2014-Aug-22 02:33N 58°50' W 004°13'1111.4
2014-Aug-22 01:33N 58°41' W 004°27'4514.4
2014-Aug-21 22:24N 58°14' W 005°37'1416.3
2014-Aug-21 21:33N 58°03' W 005°52'129 7.4
2014-Aug-21 04:09N 55°59' W 006°53'914.6
2014-Aug-21 03:33N 55°50' W 006°49'1615.7
2014-Aug-21 02:33N 55°37' W 006°35'1716.6
2014-Aug-21 01:33N 55°26' W 006°12'1717.4
2014-Aug-21 00:33N 55°15' W 005°50'2218.3
2014-Aug-20 23:23N 54°57' W 005°28'1518.3
2014-Aug-20 22:33N 54°43' W 005°20'1818.0
2014-Aug-20 21:33N 54°25' W 005°15'123 5.8
2014-Aug-20 00:10N 52°23' W 005°50'813.8
2014-Aug-19 23:33N 52°16' W 005°56'1312.7
2014-Aug-19 22:33N 52°04' W 006°06'1312.8
2014-Aug-19 21:33N 52°01' W 006°26'1313.4
2014-Aug-19 20:33N 52°01' W 006°48'1110.5
2014-Aug-19 19:33N 52°09' W 006°59'0 0.0
2014-Aug-19 18:33N 52°09' W 006°59'0 0.0
2014-Aug-19 17:33N 52°09' W 006°59'0 0.0
2014-Aug-19 16:33N 52°09' W 006°59'0 0.0
2014-Aug-19 15:28N 52°09' W 006°59'0 0.0
2014-Aug-19 14:31N 52°09' W 006°59'0 0.0
2014-Aug-19 13:33N 52°09' W 006°59'0 0.0
2014-Aug-19 12:33N 52°09' W 006°59'0 0.0
2014-Aug-19 11:33N 52°09' W 006°59'0 0.0
2014-Aug-19 10:33N 52°09' W 006°59'0 0.1
2014-Aug-19 09:32N 52°09' W 006°59'1212.3
2014-Aug-19 08:33N 51°57' W 006°52'27178.4
2014-Aug-19 05:06N 54°60' W 001°15'  

Dump ship's entire track history